sensor_id;sensor_type;location;lat;lon;timestamp;P1;durP1;ratioP1;P2;durP2;ratioP2
76540;SDS011;65385;55.772;37.658;2023-10-09T00:00:24;0.70;;;0.70;;
76540;SDS011;65385;55.772;37.658;2023-10-09T00:01:40;1.02;;;1.02;;
76540;SDS011;65385;55.772;37.658;2023-10-09T00:02:44;0.77;;;0.77;;
76540;SDS011;65385;55.772;37.658;2023-10-09T00:03:45;0.90;;;0.90;;
76540;SDS011;65385;55.772;37.658;2023-10-09T00:04:53;1.08;;;1.08;;
76540;SDS011;65385;55.772;37.658;2023-10-09T00:05:57;0.85;;;0.85;;
76540;SDS011;65385;55.772;37.658;2023-10-09T00:06:59;1.50;;;1.05;;
76540;SDS011;65385;55.772;37.658;2023-10-09T00:07:59;1.42;;;0.95;;
76540;SDS011;65385;55.772;37.658;2023-10-09T00:09:04;0.70;;;0.70;;
76540;SDS011;65385;55.772;37.658;2023-10-09T00:10:19;0.88;;;0.88;;
76540;SDS011;65385;55.772;37.658;2023-10-09T00:11:20;0.98;;;0.98;;
76540;SDS011;65385;55.772;37.658;2023-10-09T00:12:21;1.08;;;1.08;;
76540;SDS011;65385;55.772;37.658;2023-10-09T00:13:26;1.10;;;1.10;;
76540;SDS011;65385;55.772;37.658;2023-10-09T00:14:33;1.58;;;1.15;;
76540;SDS011;65385;55.772;37.658;2023-10-09T00:15:34;1.23;;;1.08;;
76540;SDS011;65385;55.772;37.658;2023-10-09T00:16:35;1.35;;;1.35;;
76540;SDS011;65385;55.772;37.658;2023-10-09T00:17:37;1.65;;;1.35;;
76540;SDS011;65385;55.772;37.658;2023-10-09T00:18:38;2.00;;;1.33;;
76540;SDS011;65385;55.772;37.658;2023-10-09T00:19:39;0.90;;;0.90;;
76540;SDS011;65385;55.772;37.658;2023-10-09T00:20:39;1.00;;;1.00;;
76540;SDS011;65385;55.772;37.658;2023-10-09T00:21:44;1.92;;;1.83;;
76540;SDS011;65385;55.772;37.658;2023-10-09T00:22:45;1.20;;;1.10;;
76540;SDS011;65385;55.772;37.658;2023-10-09T00:23:47;1.40;;;1.40;;
76540;SDS011;65385;55.772;37.658;2023-10-09T00:24:56;0.80;;;0.80;;
76540;SDS011;65385;55.772;37.658;2023-10-09T00:26:11;2.60;;;1.65;;
76540;SDS011;65385;55.772;37.658;2023-10-09T00:27:21;1.02;;;1.02;;
76540;SDS011;65385;55.772;37.658;2023-10-09T00:28:24;1.25;;;1.23;;
76540;SDS011;65385;55.772;37.658;2023-10-09T00:29:25;1.20;;;1.20;;
76540;SDS011;65385;55.772;37.658;2023-10-09T00:30:28;1.23;;;1.10;;
76540;SDS011;65385;55.772;37.658;2023-10-09T00:31:30;1.17;;;1.08;;
76540;SDS011;65385;55.772;37.658;2023-10-09T00:32:34;1.60;;;1.50;;
76540;SDS011;65385;55.772;37.658;2023-10-09T00:33:37;1.40;;;1.30;;
76540;SDS011;65385;55.772;37.658;2023-10-09T00:34:38;1.13;;;1.13;;
76540;SDS011;65385;55.772;37.658;2023-10-09T00:35:41;1.30;;;1.20;;
76540;SDS011;65385;55.772;37.658;2023-10-09T00:36:42;1.23;;;1.20;;
76540;SDS011;65385;55.772;37.658;2023-10-09T00:37:50;1.38;;;1.35;;
76540;SDS011;65385;55.772;37.658;2023-10-09T00:39:59;0.70;;;0.70;;
76540;SDS011;65385;55.772;37.658;2023-10-09T00:41:12;1.10;;;1.02;;
76540;SDS011;65385;55.772;37.658;2023-10-09T00:42:19;3.08;;;1.48;;
76540;SDS011;65385;55.772;37.658;2023-10-09T00:43:29;1.35;;;1.25;;
76540;SDS011;65385;55.772;37.658;2023-10-09T00:44:30;1.42;;;1.42;;
76540;SDS011;65385;55.772;37.658;2023-10-09T00:45:39;2.47;;;1.52;;
76540;SDS011;65385;55.772;37.658;2023-10-09T00:46:41;1.63;;;1.52;;
76540;SDS011;65385;55.772;37.658;2023-10-09T00:47:43;1.17;;;1.05;;
76540;SDS011;65385;55.772;37.658;2023-10-09T00:48:47;1.38;;;1.27;;
76540;SDS011;65385;55.772;37.658;2023-10-09T00:49:49;1.60;;;1.50;;
76540;SDS011;65385;55.772;37.658;2023-10-09T00:51:04;1.70;;;1.60;;
76540;SDS011;65385;55.772;37.658;2023-10-09T00:52:18;1.95;;;1.20;;
76540;SDS011;65385;55.772;37.658;2023-10-09T00:53:27;1.63;;;1.50;;
76540;SDS011;65385;55.772;37.658;2023-10-09T00:55:41;0.77;;;0.77;;
76540;SDS011;65385;55.772;37.658;2023-10-09T00:57:57;1.23;;;1.23;;
76540;SDS011;65385;55.772;37.658;2023-10-09T00:59:02;2.13;;;1.33;;
76540;SDS011;65385;55.772;37.658;2023-10-09T01:00:10;1.80;;;1.70;;
76540;SDS011;65385;55.772;37.658;2023-10-09T01:01:30;1.60;;;1.50;;
76540;SDS011;65385;55.772;37.658;2023-10-09T01:02:37;1.63;;;1.10;;
76540;SDS011;65385;55.772;37.658;2023-10-09T01:03:42;1.10;;;1.00;;
76540;SDS011;65385;55.772;37.658;2023-10-09T01:04:45;1.48;;;1.38;;
76540;SDS011;65385;55.772;37.658;2023-10-09T01:05:48;1.63;;;1.52;;
76540;SDS011;65385;55.772;37.658;2023-10-09T01:06:58;1.52;;;1.42;;
76540;SDS011;65385;55.772;37.658;2023-10-09T01:08:09;1.42;;;1.40;;
76540;SDS011;65385;55.772;37.658;2023-10-09T01:09:18;1.90;;;1.70;;
76540;SDS011;65385;55.772;37.658;2023-10-09T01:10:20;1.33;;;1.23;;
76540;SDS011;65385;55.772;37.658;2023-10-09T01:11:23;1.70;;;1.60;;
76540;SDS011;65385;55.772;37.658;2023-10-09T01:12:29;1.30;;;1.30;;
76540;SDS011;65385;55.772;37.658;2023-10-09T01:13:30;1.88;;;1.67;;
76540;SDS011;65385;55.772;37.658;2023-10-09T01:14:42;1.15;;;1.15;;
76540;SDS011;65385;55.772;37.658;2023-10-09T01:15:43;2.80;;;1.58;;
76540;SDS011;65385;55.772;37.658;2023-10-09T01:16:46;1.65;;;1.50;;
76540;SDS011;65385;55.772;37.658;2023-10-09T01:17:47;1.63;;;1.52;;
76540;SDS011;65385;55.772;37.658;2023-10-09T01:18:50;1.98;;;1.77;;
76540;SDS011;65385;55.772;37.658;2023-10-09T01:19:51;1.55;;;1.33;;
76540;SDS011;65385;55.772;37.658;2023-10-09T01:20:56;1.65;;;1.55;;
76540;SDS011;65385;55.772;37.658;2023-10-09T01:21:56;1.33;;;1.25;;
76540;SDS011;65385;55.772;37.658;2023-10-09T01:23:17;1.35;;;1.25;;
76540;SDS011;65385;55.772;37.658;2023-10-09T01:24:19;1.67;;;1.58;;
76540;SDS011;65385;55.772;37.658;2023-10-09T01:25:20;1.15;;;1.13;;
76540;SDS011;65385;55.772;37.658;2023-10-09T01:26:22;1.73;;;1.63;;
76540;SDS011;65385;55.772;37.658;2023-10-09T01:27:24;2.45;;;1.95;;
76540;SDS011;65385;55.772;37.658;2023-10-09T01:28:32;1.90;;;1.65;;
76540;SDS011;65385;55.772;37.658;2023-10-09T01:29:34;1.27;;;1.27;;
76540;SDS011;65385;55.772;37.658;2023-10-09T01:30:35;1.55;;;1.48;;
76540;SDS011;65385;55.772;37.658;2023-10-09T01:31:42;2.08;;;1.30;;
76540;SDS011;65385;55.772;37.658;2023-10-09T01:32:55;1.67;;;1.58;;
76540;SDS011;65385;55.772;37.658;2023-10-09T01:33:58;2.10;;;2.00;;
76540;SDS011;65385;55.772;37.658;2023-10-09T01:34:59;1.92;;;1.80;;
76540;SDS011;65385;55.772;37.658;2023-10-09T01:36:00;3.63;;;2.13;;
76540;SDS011;65385;55.772;37.658;2023-10-09T01:37:01;1.67;;;1.50;;
76540;SDS011;65385;55.772;37.658;2023-10-09T01:38:06;2.05;;;1.85;;
76540;SDS011;65385;55.772;37.658;2023-10-09T01:39:14;1.60;;;1.50;;
76540;SDS011;65385;55.772;37.658;2023-10-09T01:40:28;1.52;;;1.42;;
76540;SDS011;65385;55.772;37.658;2023-10-09T01:41:37;1.90;;;1.80;;
76540;SDS011;65385;55.772;37.658;2023-10-09T01:42:47;1.35;;;1.35;;
76540;SDS011;65385;55.772;37.658;2023-10-09T01:43:48;1.65;;;1.48;;
76540;SDS011;65385;55.772;37.658;2023-10-09T01:44:53;1.65;;;1.52;;
76540;SDS011;65385;55.772;37.658;2023-10-09T01:45:54;1.40;;;1.40;;
76540;SDS011;65385;55.772;37.658;2023-10-09T01:46:54;1.67;;;1.58;;
76540;SDS011;65385;55.772;37.658;2023-10-09T01:47:57;1.55;;;1.50;;
76540;SDS011;65385;55.772;37.658;2023-10-09T01:48:58;1.45;;;1.35;;
76540;SDS011;65385;55.772;37.658;2023-10-09T01:49:59;2.08;;;1.90;;
76540;SDS011;65385;55.772;37.658;2023-10-09T01:51:12;1.27;;;1.23;;
76540;SDS011;65385;55.772;37.658;2023-10-09T01:52:14;2.00;;;1.90;;
76540;SDS011;65385;55.772;37.658;2023-10-09T01:53:16;1.40;;;1.30;;
76540;SDS011;65385;55.772;37.658;2023-10-09T01:54:22;1.15;;;1.10;;
76540;SDS011;65385;55.772;37.658;2023-10-09T01:55:49;1.35;;;1.35;;
76540;SDS011;65385;55.772;37.658;2023-10-09T01:56:50;1.30;;;1.20;;
76540;SDS011;65385;55.772;37.658;2023-10-09T01:57:53;2.85;;;1.95;;
76540;SDS011;65385;55.772;37.658;2023-10-09T01:58:54;1.63;;;1.60;;
76540;SDS011;65385;55.772;37.658;2023-10-09T01:59:57;2.33;;;1.70;;
76540;SDS011;65385;55.772;37.658;2023-10-09T02:00:59;1.77;;;1.67;;
76540;SDS011;65385;55.772;37.658;2023-10-09T02:02:05;1.33;;;1.23;;
76540;SDS011;65385;55.772;37.658;2023-10-09T02:03:16;1.60;;;1.50;;
76540;SDS011;65385;55.772;37.658;2023-10-09T02:04:17;0.98;;;0.98;;
76540;SDS011;65385;55.772;37.658;2023-10-09T02:05:19;1.73;;;1.33;;
76540;SDS011;65385;55.772;37.658;2023-10-09T02:06:20;1.30;;;1.20;;
76540;SDS011;65385;55.772;37.658;2023-10-09T02:07:28;1.60;;;1.50;;
76540;SDS011;65385;55.772;37.658;2023-10-09T02:08:30;2.00;;;1.20;;
76540;SDS011;65385;55.772;37.658;2023-10-09T02:09:35;1.00;;;1.00;;
76540;SDS011;65385;55.772;37.658;2023-10-09T02:10:45;1.27;;;1.17;;
76540;SDS011;65385;55.772;37.658;2023-10-09T02:11:47;1.45;;;1.33;;
76540;SDS011;65385;55.772;37.658;2023-10-09T02:12:48;1.55;;;1.52;;
76540;SDS011;65385;55.772;37.658;2023-10-09T02:13:54;1.02;;;1.02;;
76540;SDS011;65385;55.772;37.658;2023-10-09T02:15:02;1.00;;;1.00;;
76540;SDS011;65385;55.772;37.658;2023-10-09T02:16:15;1.02;;;0.93;;
76540;SDS011;65385;55.772;37.658;2023-10-09T02:17:17;0.75;;;0.75;;
76540;SDS011;65385;55.772;37.658;2023-10-09T02:18:18;1.08;;;1.08;;
76540;SDS011;65385;55.772;37.658;2023-10-09T02:19:24;2.05;;;0.98;;
76540;SDS011;65385;55.772;37.658;2023-10-09T02:20:30;0.85;;;0.85;;
76540;SDS011;65385;55.772;37.658;2023-10-09T02:21:51;0.77;;;0.77;;
76540;SDS011;65385;55.772;37.658;2023-10-09T02:22:54;0.68;;;0.68;;
76540;SDS011;65385;55.772;37.658;2023-10-09T02:23:54;1.10;;;1.10;;
76540;SDS011;65385;55.772;37.658;2023-10-09T02:24:57;1.02;;;1.02;;
76540;SDS011;65385;55.772;37.658;2023-10-09T02:25:58;1.02;;;1.02;;
76540;SDS011;65385;55.772;37.658;2023-10-09T02:27:02;0.65;;;0.65;;
76540;SDS011;65385;55.772;37.658;2023-10-09T02:28:13;1.20;;;1.02;;
76540;SDS011;65385;55.772;37.658;2023-10-09T02:29:20;0.80;;;0.80;;
76540;SDS011;65385;55.772;37.658;2023-10-09T02:30:24;0.90;;;0.90;;
76540;SDS011;65385;55.772;37.658;2023-10-09T02:31:29;1.25;;;1.25;;
76540;SDS011;65385;55.772;37.658;2023-10-09T02:32:44;0.88;;;0.88;;
76540;SDS011;65385;55.772;37.658;2023-10-09T02:33:48;0.98;;;0.93;;
76540;SDS011;65385;55.772;37.658;2023-10-09T02:34:54;1.15;;;1.05;;
76540;SDS011;65385;55.772;37.658;2023-10-09T02:35:55;0.93;;;0.93;;
76540;SDS011;65385;55.772;37.658;2023-10-09T02:36:59;0.93;;;0.93;;
76540;SDS011;65385;55.772;37.658;2023-10-09T02:38:07;1.05;;;1.05;;
76540;SDS011;65385;55.772;37.658;2023-10-09T02:39:08;1.33;;;0.85;;
76540;SDS011;65385;55.772;37.658;2023-10-09T02:40:27;1.15;;;0.70;;
76540;SDS011;65385;55.772;37.658;2023-10-09T02:41:32;0.77;;;0.77;;
76540;SDS011;65385;55.772;37.658;2023-10-09T02:42:35;1.08;;;1.00;;
76540;SDS011;65385;55.772;37.658;2023-10-09T02:43:35;1.55;;;1.17;;
76540;SDS011;65385;55.772;37.658;2023-10-09T02:44:50;0.70;;;0.70;;
76540;SDS011;65385;55.772;37.658;2023-10-09T02:45:51;0.82;;;0.82;;
76540;SDS011;65385;55.772;37.658;2023-10-09T02:46:52;0.88;;;0.88;;
76540;SDS011;65385;55.772;37.658;2023-10-09T02:47:57;1.02;;;0.82;;
76540;SDS011;65385;55.772;37.658;2023-10-09T02:49:01;1.30;;;1.27;;
76540;SDS011;65385;55.772;37.658;2023-10-09T02:50:10;0.98;;;0.98;;
76540;SDS011;65385;55.772;37.658;2023-10-09T02:51:12;0.82;;;0.82;;
76540;SDS011;65385;55.772;37.658;2023-10-09T02:52:22;1.05;;;0.75;;
76540;SDS011;65385;55.772;37.658;2023-10-09T02:53:29;1.33;;;1.23;;
76540;SDS011;65385;55.772;37.658;2023-10-09T02:54:45;0.82;;;0.82;;
76540;SDS011;65385;55.772;37.658;2023-10-09T02:55:50;0.98;;;0.90;;
76540;SDS011;65385;55.772;37.658;2023-10-09T02:57:12;1.30;;;0.90;;
76540;SDS011;65385;55.772;37.658;2023-10-09T02:58:22;1.20;;;1.05;;
76540;SDS011;65385;55.772;37.658;2023-10-09T02:59:23;0.88;;;0.88;;
76540;SDS011;65385;55.772;37.658;2023-10-09T03:00:24;0.82;;;0.82;;
76540;SDS011;65385;55.772;37.658;2023-10-09T03:01:31;0.85;;;0.85;;
76540;SDS011;65385;55.772;37.658;2023-10-09T03:02:35;0.80;;;0.80;;
76540;SDS011;65385;55.772;37.658;2023-10-09T03:03:40;0.85;;;0.85;;
76540;SDS011;65385;55.772;37.658;2023-10-09T03:04:47;0.93;;;0.93;;
76540;SDS011;65385;55.772;37.658;2023-10-09T03:05:47;1.15;;;0.93;;
76540;SDS011;65385;55.772;37.658;2023-10-09T03:06:50;0.70;;;0.70;;
76540;SDS011;65385;55.772;37.658;2023-10-09T03:07:51;0.60;;;0.60;;
76540;SDS011;65385;55.772;37.658;2023-10-09T03:08:53;0.70;;;0.70;;
76540;SDS011;65385;55.772;37.658;2023-10-09T03:09:55;0.80;;;0.80;;
76540;SDS011;65385;55.772;37.658;2023-10-09T03:10:55;1.02;;;1.02;;
76540;SDS011;65385;55.772;37.658;2023-10-09T03:12:01;0.95;;;0.95;;
76540;SDS011;65385;55.772;37.658;2023-10-09T03:13:05;0.98;;;0.98;;
76540;SDS011;65385;55.772;37.658;2023-10-09T03:14:11;0.68;;;0.68;;
76540;SDS011;65385;55.772;37.658;2023-10-09T03:15:20;0.88;;;0.88;;
76540;SDS011;65385;55.772;37.658;2023-10-09T03:16:21;1.35;;;1.35;;
76540;SDS011;65385;55.772;37.658;2023-10-09T03:17:22;1.30;;;1.30;;
76540;SDS011;65385;55.772;37.658;2023-10-09T03:18:23;1.17;;;1.08;;
76540;SDS011;65385;55.772;37.658;2023-10-09T03:19:27;1.08;;;1.00;;
76540;SDS011;65385;55.772;37.658;2023-10-09T03:21:30;1.48;;;1.38;;
76540;SDS011;65385;55.772;37.658;2023-10-09T03:22:31;1.35;;;1.35;;
76540;SDS011;65385;55.772;37.658;2023-10-09T03:23:32;1.20;;;1.20;;
76540;SDS011;65385;55.772;37.658;2023-10-09T03:24:34;1.15;;;1.00;;
76540;SDS011;65385;55.772;37.658;2023-10-09T03:25:35;1.08;;;1.08;;
76540;SDS011;65385;55.772;37.658;2023-10-09T03:26:38;1.48;;;1.38;;
76540;SDS011;65385;55.772;37.658;2023-10-09T03:27:39;1.65;;;1.63;;
76540;SDS011;65385;55.772;37.658;2023-10-09T03:28:46;1.52;;;1.42;;
76540;SDS011;65385;55.772;37.658;2023-10-09T03:29:48;1.80;;;1.70;;
76540;SDS011;65385;55.772;37.658;2023-10-09T03:30:54;1.58;;;1.48;;
76540;SDS011;65385;55.772;37.658;2023-10-09T03:31:54;1.35;;;1.25;;
76540;SDS011;65385;55.772;37.658;2023-10-09T03:32:57;1.63;;;1.50;;
76540;SDS011;65385;55.772;37.658;2023-10-09T03:33:58;1.10;;;1.10;;
76540;SDS011;65385;55.772;37.658;2023-10-09T03:34:59;1.63;;;1.63;;
76540;SDS011;65385;55.772;37.658;2023-10-09T03:36:00;1.42;;;1.42;;
76540;SDS011;65385;55.772;37.658;2023-10-09T03:37:01;1.42;;;1.33;;
76540;SDS011;65385;55.772;37.658;2023-10-09T03:38:05;0.93;;;0.93;;
76540;SDS011;65385;55.772;37.658;2023-10-09T03:39:12;1.10;;;1.10;;
76540;SDS011;65385;55.772;37.658;2023-10-09T03:40:31;0.88;;;0.88;;
76540;SDS011;65385;55.772;37.658;2023-10-09T03:41:32;1.67;;;1.58;;
76540;SDS011;65385;55.772;37.658;2023-10-09T03:42:33;1.42;;;1.33;;
76540;SDS011;65385;55.772;37.658;2023-10-09T03:43:36;1.10;;;1.10;;
76540;SDS011;65385;55.772;37.658;2023-10-09T03:44:46;2.13;;;1.48;;
76540;SDS011;65385;55.772;37.658;2023-10-09T03:45:53;1.05;;;1.05;;
76540;SDS011;65385;55.772;37.658;2023-10-09T03:46:54;1.45;;;1.35;;
76540;SDS011;65385;55.772;37.658;2023-10-09T03:47:55;1.33;;;1.23;;
76540;SDS011;65385;55.772;37.658;2023-10-09T03:49:09;0.90;;;0.90;;
76540;SDS011;65385;55.772;37.658;2023-10-09T03:50:11;1.17;;;1.00;;
76540;SDS011;65385;55.772;37.658;2023-10-09T03:51:24;0.88;;;0.88;;
76540;SDS011;65385;55.772;37.658;2023-10-09T03:52:26;1.15;;;1.15;;
76540;SDS011;65385;55.772;37.658;2023-10-09T03:53:31;1.15;;;1.15;;
76540;SDS011;65385;55.772;37.658;2023-10-09T03:54:32;1.00;;;1.00;;
76540;SDS011;65385;55.772;37.658;2023-10-09T03:55:35;1.10;;;1.02;;
76540;SDS011;65385;55.772;37.658;2023-10-09T03:56:38;0.85;;;0.77;;
76540;SDS011;65385;55.772;37.658;2023-10-09T03:57:40;1.33;;;1.33;;
76540;SDS011;65385;55.772;37.658;2023-10-09T03:58:41;1.38;;;1.25;;
76540;SDS011;65385;55.772;37.658;2023-10-09T03:59:44;1.40;;;1.30;;
76540;SDS011;65385;55.772;37.658;2023-10-09T04:00:47;0.90;;;0.90;;
76540;SDS011;65385;55.772;37.658;2023-10-09T04:01:49;1.10;;;1.10;;
76540;SDS011;65385;55.772;37.658;2023-10-09T04:02:57;1.58;;;1.48;;
76540;SDS011;65385;55.772;37.658;2023-10-09T04:03:59;1.52;;;1.42;;
76540;SDS011;65385;55.772;37.658;2023-10-09T04:05:00;1.35;;;1.27;;
76540;SDS011;65385;55.772;37.658;2023-10-09T04:06:01;1.67;;;1.40;;
76540;SDS011;65385;55.772;37.658;2023-10-09T04:07:02;2.35;;;1.30;;
76540;SDS011;65385;55.772;37.658;2023-10-09T04:08:03;1.30;;;1.20;;
76540;SDS011;65385;55.772;37.658;2023-10-09T04:09:12;1.73;;;1.55;;
76540;SDS011;65385;55.772;37.658;2023-10-09T04:10:19;1.52;;;1.35;;
76540;SDS011;65385;55.772;37.658;2023-10-09T04:11:39;0.90;;;0.90;;
76540;SDS011;65385;55.772;37.658;2023-10-09T04:12:43;1.67;;;1.35;;
76540;SDS011;65385;55.772;37.658;2023-10-09T04:13:44;1.70;;;1.60;;
76540;SDS011;65385;55.772;37.658;2023-10-09T04:14:49;1.17;;;1.17;;
76540;SDS011;65385;55.772;37.658;2023-10-09T04:15:55;2.17;;;2.00;;
76540;SDS011;65385;55.772;37.658;2023-10-09T04:16:56;1.13;;;1.13;;
76540;SDS011;65385;55.772;37.658;2023-10-09T04:18:15;1.50;;;1.40;;
76540;SDS011;65385;55.772;37.658;2023-10-09T04:19:16;1.73;;;1.65;;
76540;SDS011;65385;55.772;37.658;2023-10-09T04:20:22;1.30;;;1.20;;
76540;SDS011;65385;55.772;37.658;2023-10-09T04:21:23;1.50;;;1.48;;
76540;SDS011;65385;55.772;37.658;2023-10-09T04:22:37;1.60;;;1.50;;
76540;SDS011;65385;55.772;37.658;2023-10-09T04:23:56;1.77;;;1.50;;
76540;SDS011;65385;55.772;37.658;2023-10-09T04:25:09;1.15;;;1.15;;
76540;SDS011;65385;55.772;37.658;2023-10-09T04:26:28;1.67;;;1.58;;
76540;SDS011;65385;55.772;37.658;2023-10-09T04:27:32;1.48;;;1.48;;
76540;SDS011;65385;55.772;37.658;2023-10-09T04:28:37;1.67;;;1.58;;
76540;SDS011;65385;55.772;37.658;2023-10-09T04:29:38;2.85;;;1.83;;
76540;SDS011;65385;55.772;37.658;2023-10-09T04:30:39;1.45;;;1.40;;
76540;SDS011;65385;55.772;37.658;2023-10-09T04:31:47;1.35;;;1.30;;
76540;SDS011;65385;55.772;37.658;2023-10-09T04:32:51;2.38;;;1.52;;
76540;SDS011;65385;55.772;37.658;2023-10-09T04:33:55;2.03;;;1.67;;
76540;SDS011;65385;55.772;37.658;2023-10-09T04:35:16;2.97;;;1.70;;
76540;SDS011;65385;55.772;37.658;2023-10-09T04:36:19;1.40;;;1.30;;
76540;SDS011;65385;55.772;37.658;2023-10-09T04:37:23;1.75;;;1.65;;
76540;SDS011;65385;55.772;37.658;2023-10-09T04:38:39;1.30;;;1.30;;
76540;SDS011;65385;55.772;37.658;2023-10-09T04:39:53;1.67;;;1.58;;
76540;SDS011;65385;55.772;37.658;2023-10-09T04:41:16;1.23;;;1.17;;
76540;SDS011;65385;55.772;37.658;2023-10-09T04:43:37;1.65;;;1.52;;
76540;SDS011;65385;55.772;37.658;2023-10-09T04:44:44;1.42;;;1.33;;
76540;SDS011;65385;55.772;37.658;2023-10-09T04:46:07;2.15;;;1.98;;
76540;SDS011;65385;55.772;37.658;2023-10-09T04:47:13;1.40;;;1.30;;
76540;SDS011;65385;55.772;37.658;2023-10-09T04:48:25;1.58;;;1.48;;
76540;SDS011;65385;55.772;37.658;2023-10-09T04:49:33;3.30;;;1.80;;
76540;SDS011;65385;55.772;37.658;2023-10-09T04:51:02;1.77;;;1.63;;
76540;SDS011;65385;55.772;37.658;2023-10-09T04:52:21;1.38;;;1.38;;
76540;SDS011;65385;55.772;37.658;2023-10-09T04:53:31;1.27;;;1.27;;
76540;SDS011;65385;55.772;37.658;2023-10-09T04:54:39;1.70;;;1.60;;
76540;SDS011;65385;55.772;37.658;2023-10-09T04:55:49;1.85;;;1.58;;
76540;SDS011;65385;55.772;37.658;2023-10-09T04:56:58;2.45;;;1.80;;
76540;SDS011;65385;55.772;37.658;2023-10-09T04:57:59;1.40;;;1.30;;
76540;SDS011;65385;55.772;37.658;2023-10-09T04:59:09;1.70;;;1.60;;
76540;SDS011;65385;55.772;37.658;2023-10-09T05:00:13;1.63;;;1.52;;
76540;SDS011;65385;55.772;37.658;2023-10-09T05:01:30;1.95;;;1.40;;
76540;SDS011;65385;55.772;37.658;2023-10-09T05:02:36;2.25;;;1.65;;
76540;SDS011;65385;55.772;37.658;2023-10-09T05:03:38;1.52;;;1.42;;
76540;SDS011;65385;55.772;37.658;2023-10-09T05:04:40;1.58;;;1.48;;
76540;SDS011;65385;55.772;37.658;2023-10-09T05:05:41;1.83;;;1.38;;
76540;SDS011;65385;55.772;37.658;2023-10-09T05:06:42;1.75;;;1.50;;
76540;SDS011;65385;55.772;37.658;2023-10-09T05:07:43;2.42;;;1.95;;
76540;SDS011;65385;55.772;37.658;2023-10-09T05:08:54;1.98;;;1.60;;
76540;SDS011;65385;55.772;37.658;2023-10-09T05:09:55;1.58;;;1.45;;
76540;SDS011;65385;55.772;37.658;2023-10-09T05:10:56;1.42;;;1.33;;
76540;SDS011;65385;55.772;37.658;2023-10-09T05:11:59;2.30;;;1.73;;
76540;SDS011;65385;55.772;37.658;2023-10-09T05:13:09;1.75;;;1.35;;
76540;SDS011;65385;55.772;37.658;2023-10-09T05:14:14;1.35;;;1.35;;
76540;SDS011;65385;55.772;37.658;2023-10-09T05:15:14;3.35;;;1.50;;
76540;SDS011;65385;55.772;37.658;2023-10-09T05:16:16;1.45;;;1.40;;
76540;SDS011;65385;55.772;37.658;2023-10-09T05:17:28;2.90;;;1.58;;
76540;SDS011;65385;55.772;37.658;2023-10-09T05:18:29;1.67;;;1.58;;
76540;SDS011;65385;55.772;37.658;2023-10-09T05:19:36;2.03;;;1.92;;
76540;SDS011;65385;55.772;37.658;2023-10-09T05:20:55;1.60;;;1.50;;
76540;SDS011;65385;55.772;37.658;2023-10-09T05:21:57;1.70;;;1.60;;
76540;SDS011;65385;55.772;37.658;2023-10-09T05:22:59;1.42;;;1.38;;
76540;SDS011;65385;55.772;37.658;2023-10-09T05:24:15;3.83;;;1.77;;
76540;SDS011;65385;55.772;37.658;2023-10-09T05:25:18;2.58;;;1.85;;
76540;SDS011;65385;55.772;37.658;2023-10-09T05:27:50;1.58;;;1.48;;
76540;SDS011;65385;55.772;37.658;2023-10-09T05:28:51;1.38;;;1.27;;
76540;SDS011;65385;55.772;37.658;2023-10-09T05:29:53;2.15;;;1.90;;
76540;SDS011;65385;55.772;37.658;2023-10-09T05:30:59;3.08;;;1.70;;
76540;SDS011;65385;55.772;37.658;2023-10-09T05:32:07;1.75;;;1.65;;
76540;SDS011;65385;55.772;37.658;2023-10-09T05:33:29;3.80;;;1.65;;
76540;SDS011;65385;55.772;37.658;2023-10-09T05:34:30;1.45;;;1.35;;
76540;SDS011;65385;55.772;37.658;2023-10-09T05:35:35;1.60;;;1.50;;
76540;SDS011;65385;55.772;37.658;2023-10-09T05:36:41;1.00;;;1.00;;
76540;SDS011;65385;55.772;37.658;2023-10-09T05:37:47;2.95;;;1.60;;
76540;SDS011;65385;55.772;37.658;2023-10-09T05:38:59;4.20;;;2.38;;
76540;SDS011;65385;55.772;37.658;2023-10-09T05:40:17;1.50;;;1.42;;
76540;SDS011;65385;55.772;37.658;2023-10-09T05:41:20;2.45;;;1.80;;
76540;SDS011;65385;55.772;37.658;2023-10-09T05:42:46;1.83;;;1.73;;
76540;SDS011;65385;55.772;37.658;2023-10-09T05:43:58;1.98;;;1.73;;
76540;SDS011;65385;55.772;37.658;2023-10-09T05:45:17;1.88;;;1.55;;
76540;SDS011;65385;55.772;37.658;2023-10-09T05:46:19;2.85;;;2.17;;
76540;SDS011;65385;55.772;37.658;2023-10-09T05:47:35;2.38;;;1.95;;
76540;SDS011;65385;55.772;37.658;2023-10-09T05:48:37;2.15;;;1.92;;
76540;SDS011;65385;55.772;37.658;2023-10-09T05:49:38;2.42;;;2.22;;
76540;SDS011;65385;55.772;37.658;2023-10-09T05:50:55;2.25;;;1.85;;
76540;SDS011;65385;55.772;37.658;2023-10-09T05:52:12;1.92;;;1.70;;
76540;SDS011;65385;55.772;37.658;2023-10-09T05:53:32;2.15;;;1.80;;
76540;SDS011;65385;55.772;37.658;2023-10-09T05:54:44;3.70;;;1.95;;
76540;SDS011;65385;55.772;37.658;2023-10-09T05:56:10;1.92;;;1.83;;
76540;SDS011;65385;55.772;37.658;2023-10-09T05:57:30;3.53;;;2.28;;
76540;SDS011;65385;55.772;37.658;2023-10-09T05:59:02;2.00;;;1.90;;
76540;SDS011;65385;55.772;37.658;2023-10-09T06:00:06;2.30;;;1.92;;
76540;SDS011;65385;55.772;37.658;2023-10-09T06:01:26;2.25;;;1.80;;
76540;SDS011;65385;55.772;37.658;2023-10-09T06:02:44;2.47;;;2.10;;
76540;SDS011;65385;55.772;37.658;2023-10-09T06:04:04;2.05;;;1.92;;
76540;SDS011;65385;55.772;37.658;2023-10-09T06:05:15;1.80;;;1.70;;
76540;SDS011;65385;55.772;37.658;2023-10-09T06:06:34;1.70;;;1.60;;
76540;SDS011;65385;55.772;37.658;2023-10-09T06:07:42;1.90;;;1.80;;
76540;SDS011;65385;55.772;37.658;2023-10-09T06:09:03;2.20;;;1.80;;
76540;SDS011;65385;55.772;37.658;2023-10-09T06:10:30;1.85;;;1.42;;
76540;SDS011;65385;55.772;37.658;2023-10-09T06:11:41;2.40;;;2.20;;
76540;SDS011;65385;55.772;37.658;2023-10-09T06:12:49;3.60;;;1.95;;
76540;SDS011;65385;55.772;37.658;2023-10-09T06:13:50;2.60;;;1.92;;
76540;SDS011;65385;55.772;37.658;2023-10-09T06:15:03;2.63;;;1.70;;
76540;SDS011;65385;55.772;37.658;2023-10-09T06:16:33;1.88;;;1.70;;
76540;SDS011;65385;55.772;37.658;2023-10-09T06:17:44;3.53;;;2.28;;
76540;SDS011;65385;55.772;37.658;2023-10-09T06:18:50;1.77;;;1.67;;
76540;SDS011;65385;55.772;37.658;2023-10-09T06:20:08;1.73;;;1.40;;
76540;SDS011;65385;55.772;37.658;2023-10-09T06:21:29;2.13;;;1.63;;
76540;SDS011;65385;55.772;37.658;2023-10-09T06:22:48;1.92;;;1.70;;
76540;SDS011;65385;55.772;37.658;2023-10-09T06:23:57;1.73;;;1.63;;
76540;SDS011;65385;55.772;37.658;2023-10-09T06:25:18;1.90;;;1.80;;
76540;SDS011;65385;55.772;37.658;2023-10-09T06:26:18;2.00;;;1.88;;
76540;SDS011;65385;55.772;37.658;2023-10-09T06:27:25;2.08;;;1.90;;
76540;SDS011;65385;55.772;37.658;2023-10-09T06:28:32;3.13;;;2.50;;
76540;SDS011;65385;55.772;37.658;2023-10-09T06:29:36;1.77;;;1.67;;
76540;SDS011;65385;55.772;37.658;2023-10-09T06:30:37;2.10;;;1.83;;
76540;SDS011;65385;55.772;37.658;2023-10-09T06:31:46;1.85;;;1.60;;
76540;SDS011;65385;55.772;37.658;2023-10-09T06:32:59;3.75;;;2.42;;
76540;SDS011;65385;55.772;37.658;2023-10-09T06:34:02;2.63;;;1.90;;
76540;SDS011;65385;55.772;37.658;2023-10-09T06:35:09;1.90;;;1.80;;
76540;SDS011;65385;55.772;37.658;2023-10-09T06:36:16;2.58;;;2.38;;
76540;SDS011;65385;55.772;37.658;2023-10-09T06:37:18;4.00;;;2.28;;
76540;SDS011;65385;55.772;37.658;2023-10-09T06:38:25;2.25;;;2.05;;
76540;SDS011;65385;55.772;37.658;2023-10-09T06:39:40;1.90;;;1.70;;
76540;SDS011;65385;55.772;37.658;2023-10-09T06:40:50;1.70;;;1.60;;
76540;SDS011;65385;55.772;37.658;2023-10-09T06:41:54;4.25;;;2.47;;